메인 페이지
METAR-TAF:

METAR-TAF

공항 :

벌링턴, 버몬트, 미국

위도: 44-28-05N, 경도: 073-09-01W, 고도: 101m

현재 날씨관측

예보는 41분 전, 02:54시(UTC)에 발표되었습니다.
북서10kt
온도 -8°C
습도 62%
기압 1011 hPa
시정: 12.9km
고도 4000ft 상공 흐림
약한눈

METAR: KBTV 050254Z 31010KT 8SM -SN OVC040 M08/M14 A2986 RMK AO2 SNB0159 SLP116 P0000 60000 T10781144 58003 $

시각: 22:35 (03:35 UTC)

예보

예보는 36분 전, 02:59시(UTC)에 발표되었습니다.
예보 대상 시간: 05일 03시부터 05일 24시까지 (UTC)
북서13kt, 순간 최대 풍속 22kt
시정: 9.7km
고도 3500ft 상공 흐림
약한소낙눈, 박무
일시적
05일 03시부터 05일 07시까지 (UTC)
시정: 4.8km
고도 2500ft 상공 흐림
약한소낙눈
05일 1200시부터 (UTC)
북서13kt, 순간 최대 풍속 20kt
시정: 10km
고도 4000ft 상공 흐림
시계 내 소나기
05일 2200시부터 (UTC)
북서10kt, 순간 최대 풍속 16kt
시정: 9.7km
고도 3500ft 상공 흐림
약한소낙눈

TAF: KBTV 050259Z 0503/0524 31013G22KT 6SM -SHSN BR OVC035 TEMPO 0503/0507 3SM -SHSN OVC025 FM051200 31013G20KT P6SM VCSH OVC040 FM052200 32010G16KT 6SM -SHSN OVC035

4,000개 이상의 공항 관측 자료 및 예보 (METAR 및 TAF 보고).

지도상에서 검색 가능한 기상관측소가 노란 점과 빨간 점으로 표시되어 있습니다.

기상관측소 명을 보려면 표시 위로 마우스를 이동하세요.

날씨 관측과 예보를 보려면 클릭하세요.

지도 변경 : 확대하려면 엑스 표시가 있는 녹색 버튼, 축소하려면 빼기 표시가 있는 녹색 버튼, 다음 페이지의 지도를 보려면 녹색 화살표를 클릭하세요.


METAR-TAF: